createdAt,value
2018-12-20T00:15:45.846Z,33.23
2018-12-20T00:51:51.456Z,33.02
2018-12-20T01:33:30.014Z,34.00
2018-12-20T01:39:19.671Z,39.30
2018-12-20T01:48:46.349Z,35.17
2018-12-20T01:51:32.989Z,31.93
2018-12-20T01:54:11.600Z,31.20
2018-12-20T01:56:44.227Z,34.20
2018-12-20T02:13:08.032Z,29.60
2018-12-20T02:16:07.577Z,36.83
2018-12-20T02:45:36.233Z,39.40
2018-12-20T02:51:36.923Z,36.35
2018-12-20T02:57:51.582Z,31.75
2018-12-20T03:00:40.148Z,30.60
2018-12-20T03:03:18.369Z,36.70
2018-12-20T03:06:04.979Z,31.27
2018-12-20T03:08:48.414Z,34.63
2018-12-20T03:49:17.526Z,27.67
2018-12-20T03:52:21.092Z,40.38
2018-12-20T04:09:12.311Z,41.50
2018-12-20T04:11:57.552Z,36.65
2018-12-20T04:14:50.415Z,35.45
2018-12-20T04:24:33.320Z,30.88
2018-12-20T04:27:27.305Z,33.98
2018-12-20T04:30:05.676Z,36.20
2018-12-20T04:32:45.282Z,43.95
2018-12-20T04:35:23.821Z,49.50
2018-12-20T04:48:01.385Z,52.90
2018-12-20T04:51:14.856Z,43.48
2018-12-20T05:01:28.849Z,43.20
2018-12-20T05:04:14.362Z,44.77
2018-12-20T05:06:59.014Z,38.42
2018-12-20T06:13:52.643Z,38.08
2018-12-20T06:16:46.738Z,42.10
2018-12-20T06:33:17.233Z,43.65
2018-12-20T06:39:16.828Z,38.20
2018-12-20T06:42:07.239Z,41.37
2018-12-20T06:44:49.443Z,42.55
2018-12-20T06:50:17.362Z,37.90
2018-12-20T06:52:55.282Z,36.63
2018-12-20T07:15:10.569Z,30.40
2018-12-20T07:18:06.721Z,34.58
2018-12-20T07:20:59.815Z,39.60
2018-12-20T07:23:46.599Z,43.17
2018-12-20T07:26:30.866Z,34.20
2018-12-20T07:29:11.314Z,44.73
2018-12-20T07:35:15.321Z,42.15
2018-12-20T07:37:46.304Z,49.27
2018-12-20T07:43:54.253Z,40.05
2018-12-20T07:46:27.209Z,40.75
2018-12-20T07:48:59.206Z,47.53
2018-12-20T07:55:07.591Z,55.23
2018-12-20T08:04:21.070Z,50.38
2018-12-20T08:06:54.481Z,48.75
2018-12-20T08:09:40.827Z,51.55
2018-12-20T08:12:22.990Z,46.02
2018-12-20T08:18:08.385Z,44.95
2018-12-20T08:20:40.412Z,48.33
2018-12-20T08:26:43.670Z,42.43
2018-12-20T08:29:17.891Z,52.15
2018-12-20T08:31:51.798Z,46.73
2018-12-20T08:34:28.839Z,48.63
2018-12-20T08:37:01.807Z,47.50
2018-12-20T08:39:33.715Z,49.65
2018-12-20T08:42:10.736Z,53.63
2018-12-20T08:44:44.697Z,48.68
2018-12-20T08:47:18.362Z,42.35
2018-12-20T08:49:53.319Z,46.30
2018-12-20T08:52:31.395Z,43.68
2018-12-20T08:55:05.636Z,50.15
2018-12-20T08:57:39.664Z,41.42
2018-12-20T09:00:11.227Z,44.93
2018-12-20T09:02:48.469Z,48.15
2018-12-20T09:05:21.433Z,46.45
2018-12-20T09:07:55.295Z,44.08
2018-12-20T09:10:25.201Z,42.25
2018-12-20T09:12:59.273Z,53.00
2018-12-20T09:15:29.038Z,46.20
2018-12-20T09:18:02.077Z,43.38
2018-12-20T09:20:39.996Z,48.02
2018-12-20T09:23:13.985Z,45.15
2018-12-20T09:25:51.009Z,48.68
2018-12-20T09:28:23.981Z,41.13
2018-12-20T09:31:00.812Z,47.78
2018-12-20T09:33:30.717Z,44.77
2018-12-20T09:36:00.669Z,45.65
2018-12-20T09:38:33.715Z,38.92
2018-12-20T09:41:06.685Z,44.67
2018-12-20T09:43:36.542Z,49.15
2018-12-20T09:46:05.533Z,42.78
2018-12-20T09:48:35.338Z,44.25
2018-12-20T09:51:05.243Z,45.05
2018-12-20T09:53:41.243Z,46.13
2018-12-20T09:56:13.291Z,48.90
2018-12-20T09:58:46.993Z,43.25
2018-12-20T10:04:51.750Z,47.55
2018-12-20T10:07:28.589Z,44.95
2018-12-20T10:10:06.715Z,45.00
2018-12-20T10:12:39.679Z,45.43
2018-12-20T10:15:12.628Z,48.98
2018-12-20T10:17:47.179Z,43.92
2018-12-20T10:20:23.581Z,48.50
2018-12-20T10:22:56.518Z,41.55
2018-12-20T10:25:33.533Z,47.35
2018-12-20T10:28:07.374Z,43.30
2018-12-20T10:30:40.341Z,48.52
2018-12-20T10:38:12.845Z,49.75
2018-12-20T10:40:49.189Z,51.42
2018-12-20T10:43:26.177Z,51.02
2018-12-20T10:45:59.132Z,44.60
2018-12-20T10:48:35.991Z,45.92
2018-12-20T10:51:09.082Z,38.20
2018-12-20T10:53:45.985Z,44.38
2018-12-20T10:56:19.035Z,48.00
2018-12-20T10:58:49.704Z,44.83
2018-12-20T11:01:27.950Z,43.95
2018-12-20T11:04:10.065Z,55.25
2018-12-20T11:06:49.043Z,40.17
2018-12-20T11:09:27.771Z,42.33
2018-12-20T11:12:09.848Z,39.60
2018-12-20T11:14:46.856Z,43.23
2018-12-20T11:17:24.089Z,45.43
2018-12-20T11:20:01.775Z,42.73
2018-12-20T11:22:39.135Z,41.17
2018-12-20T11:25:18.882Z,47.30
2018-12-20T11:27:52.846Z,41.13
2018-12-20T11:30:23.062Z,41.53
2018-12-20T11:36:18.609Z,42.43
2018-12-20T11:38:56.181Z,38.37
2018-12-20T11:41:33.674Z,40.87
2018-12-20T11:44:11.249Z,38.13
2018-12-20T11:46:43.613Z,43.47
2018-12-20T11:49:21.065Z,38.73
2018-12-20T11:51:55.257Z,37.30
2018-12-20T11:54:32.463Z,41.53
2018-12-20T11:57:02.962Z,42.87
2018-12-20T11:59:36.327Z,37.07
2018-12-20T12:02:13.423Z,43.23
2018-12-20T12:04:51.420Z,37.27
2018-12-20T12:10:46.954Z,41.87
2018-12-20T12:13:24.001Z,36.57
2018-12-20T12:15:57.660Z,39.87
2018-12-20T12:18:35.681Z,38.50
2018-12-20T12:21:08.917Z,38.90
2018-12-20T12:23:45.826Z,38.63
2018-12-20T12:26:19.618Z,36.80
2018-12-20T12:28:53.747Z,37.67
2018-12-20T12:31:26.778Z,34.10
2018-12-20T12:33:59.715Z,31.57
2018-12-20T12:36:28.664Z,34.40
2018-12-20T12:38:59.327Z,37.00
2018-12-20T12:41:36.581Z,38.60
2018-12-20T12:46:34.273Z,38.60
2018-12-20T12:49:03.313Z,31.80
2018-12-20T12:51:36.270Z,31.97
2018-12-20T12:54:13.279Z,35.80
2018-12-20T12:56:50.209Z,38.03
2018-12-20T12:59:23.885Z,35.50
2018-12-20T13:02:00.985Z,40.00
2018-12-20T13:04:34.735Z,36.63
2018-12-20T13:07:04.122Z,36.13
2018-12-20T13:09:34.774Z,37.70
2018-12-20T13:12:05.693Z,40.90
2018-12-20T13:14:39.666Z,37.73
2018-12-20T13:17:15.945Z,40.53
2018-12-20T13:19:51.955Z,46.07
2018-12-20T13:22:27.926Z,38.87
2018-12-20T13:28:29.561Z,43.03
2018-12-20T13:30:58.475Z,38.80
2018-12-20T13:33:27.354Z,39.40
2018-12-20T13:35:57.791Z,41.10
2018-12-20T13:38:28.231Z,43.73
2018-12-20T13:41:05.241Z,40.20
2018-12-20T13:43:39.762Z,40.10
2018-12-20T13:46:13.047Z,39.33
2018-12-20T13:48:50.032Z,44.43
2018-12-20T13:54:45.707Z,41.00
2018-12-20T13:57:18.662Z,39.50
2018-12-20T13:59:55.670Z,45.15
2018-12-20T14:02:35.739Z,42.35
2018-12-20T14:05:14.519Z,46.35
2018-12-20T14:07:58.643Z,41.73
2018-12-20T14:10:26.729Z,45.00
2018-12-20T14:13:00.688Z,41.42
2018-12-20T14:15:33.637Z,39.83
2018-12-20T14:21:38.307Z,46.88
2018-12-20T14:24:13.281Z,50.65
2018-12-20T14:27:08.757Z,49.90
2018-12-20T14:30:12.794Z,48.45
2018-12-20T14:33:08.406Z,50.20
2018-12-20T14:35:51.145Z,54.67
2018-12-20T14:38:43.966Z,48.30
2018-12-20T14:41:20.191Z,52.50
2018-12-20T14:44:01.329Z,52.03
2018-12-20T14:47:07.891Z,57.40
2018-12-20T15:00:26.816Z,48.63
2018-12-20T15:03:01.075Z,46.68
2018-12-20T15:05:33.952Z,56.13
2018-12-20T15:08:06.922Z,52.67
2018-12-20T15:10:39.872Z,48.85
2018-12-20T15:13:16.906Z,58.95
2018-12-20T15:15:53.846Z,49.83
2018-12-20T15:18:31.569Z,58.75
2018-12-20T15:21:08.967Z,49.67
2018-12-20T15:23:46.998Z,53.58
2018-12-20T15:26:16.778Z,45.28
2018-12-20T15:28:49.883Z,46.98
2018-12-20T15:31:26.849Z,59.95
2018-12-20T15:34:03.877Z,54.00
2018-12-20T15:36:36.861Z,53.20
2018-12-20T15:39:09.701Z,51.68
2018-12-20T15:41:46.837Z,57.90
2018-12-20T15:47:46.414Z,53.00
2018-12-20T15:50:20.247Z,54.67
2018-12-20T15:52:53.346Z,58.73
2018-12-20T15:55:27.166Z,59.42
2018-12-20T15:58:00.158Z,56.88
2018-12-20T16:00:30.181Z,52.10
2018-12-20T16:03:07.068Z,51.68
2018-12-20T16:05:40.072Z,51.48
2018-12-20T16:08:13.142Z,56.10
2018-12-20T16:10:45.981Z,56.88
2018-12-20T16:13:18.437Z,50.08
2018-12-20T16:15:51.882Z,49.83
2018-12-20T16:18:25.683Z,57.08
2018-12-20T16:21:03.610Z,51.77
2018-12-20T16:23:36.902Z,53.15
2018-12-20T16:26:06.829Z,60.80
2018-12-20T16:28:39.689Z,49.67
2018-12-20T16:31:12.385Z,59.63
2018-12-20T16:33:51.385Z,56.48
2018-12-20T16:36:28.690Z,57.15
2018-12-20T16:39:02.638Z,52.00
2018-12-20T16:41:35.546Z,56.73
2018-12-20T16:44:07.066Z,62.03
2018-12-20T16:46:40.554Z,54.00
2018-12-20T16:49:13.967Z,54.13
2018-12-20T16:51:47.337Z,50.58
2018-12-20T16:54:24.430Z,52.65
2018-12-20T16:56:57.273Z,56.48
2018-12-20T16:59:27.334Z,65.78
2018-12-20T17:02:00.253Z,51.95
2018-12-20T17:04:32.724Z,54.05
2018-12-20T17:07:09.941Z,54.08
2018-12-20T17:09:48.167Z,56.68
2018-12-20T17:15:50.816Z,62.33
2018-12-20T17:18:27.810Z,69.60
2018-12-20T17:21:04.802Z,56.35
2018-12-20T17:23:38.481Z,63.90
2018-12-20T17:26:08.674Z,52.65
2018-12-20T17:28:45.657Z,62.53
2018-12-20T17:31:18.602Z,56.18
2018-12-20T17:33:52.285Z,62.62
2018-12-20T17:36:24.506Z,64.67
2018-12-20T17:38:54.301Z,55.20
2018-12-20T17:41:28.373Z,51.45
2018-12-20T17:44:07.209Z,56.42
2018-12-20T17:46:40.233Z,60.00
2018-12-20T17:49:13.255Z,55.03
2018-12-20T17:51:43.077Z,57.33
2018-12-20T17:54:16.053Z,64.12
2018-12-20T17:56:46.016Z,61.53
2018-12-20T17:59:23.001Z,62.45
2018-12-20T18:02:00.009Z,59.15
2018-12-20T18:04:35.056Z,64.20
2018-12-20T18:07:05.687Z,58.05
2018-12-20T18:09:43.057Z,56.23
2018-12-20T18:15:53.485Z,54.38
2018-12-20T18:18:26.366Z,58.30
2018-12-20T18:21:03.375Z,61.37
2018-12-20T18:23:36.253Z,54.15
2018-12-20T18:26:12.698Z,55.17
2018-12-20T18:28:47.355Z,53.52
2018-12-20T18:31:18.151Z,53.15
2018-12-20T18:33:51.655Z,53.95
2018-12-20T18:36:28.166Z,55.83
2018-12-20T18:39:01.979Z,61.28
2018-12-20T18:41:35.066Z,65.65
2018-12-20T18:44:04.687Z,53.08
2018-12-20T18:46:37.796Z,57.00
2018-12-20T18:49:10.840Z,57.38
2018-12-20T18:51:40.648Z,60.92
2018-12-20T18:54:13.610Z,61.70
2018-12-20T18:56:43.458Z,49.77
2018-12-20T18:59:17.223Z,53.95
2018-12-20T19:01:50.171Z,55.70
2018-12-20T19:04:27.346Z,61.95
2018-12-20T19:07:05.346Z,51.50
2018-12-20T19:09:43.185Z,60.38
2018-12-20T19:12:16.473Z,56.25
2018-12-20T19:14:53.407Z,66.10
2018-12-20T19:17:23.399Z,65.47
2018-12-20T19:20:00.283Z,66.53
2018-12-20T19:22:30.192Z,68.22
2018-12-20T19:25:00.077Z,65.42
2018-12-20T19:31:02.675Z,60.88
2018-12-20T19:33:39.783Z,57.88
2018-12-20T19:36:13.538Z,65.55
2018-12-20T19:38:43.433Z,62.60
2018-12-20T19:44:48.166Z,52.80
2018-12-20T19:47:26.896Z,61.85
2018-12-20T19:50:07.781Z,64.55
2018-12-20T19:52:48.653Z,58.13
2018-12-20T19:55:22.050Z,55.38
2018-12-20T19:57:59.039Z,56.05
2018-12-20T20:00:32.093Z,56.20
2018-12-20T20:03:02.557Z,62.73
2018-12-20T20:05:38.941Z,52.67
2018-12-20T20:08:08.755Z,56.80
2018-12-20T20:10:41.649Z,58.60
2018-12-20T20:13:19.205Z,56.50
2018-12-20T20:15:46.637Z,57.60
2018-12-20T20:18:24.540Z,57.33
2018-12-20T20:21:01.671Z,56.45
2018-12-20T20:23:31.554Z,57.85
2018-12-20T20:26:09.554Z,56.95
2018-12-20T20:28:40.354Z,55.65
2018-12-20T20:31:13.334Z,59.13
2018-12-20T20:33:43.259Z,58.90
2018-12-20T20:36:21.202Z,58.90
2018-12-20T20:39:02.173Z,53.50
2018-12-20T20:41:35.218Z,57.93
2018-12-20T20:47:25.766Z,71.12
2018-12-20T20:50:00.721Z,59.15
2018-12-20T20:52:39.748Z,72.32
2018-12-20T20:55:13.654Z,125.60
2018-12-20T20:57:50.715Z,114.82
2018-12-20T21:00:21.313Z,128.20
2018-12-20T21:03:26.549Z,123.92
2018-12-20T21:06:03.869Z,108.35
2018-12-20T21:08:41.019Z,97.90
2018-12-20T21:11:18.959Z,112.80
2018-12-20T21:13:49.665Z,90.22
2018-12-20T21:16:20.581Z,88.58
2018-12-20T21:18:59.384Z,107.03
2018-12-20T21:21:36.898Z,125.40
2018-12-20T21:24:09.797Z,114.00
2018-12-20T21:26:42.791Z,127.65
2018-12-20T21:29:12.675Z,123.78
2018-12-20T21:31:45.637Z,119.55
2018-12-20T21:34:16.271Z,125.27
2018-12-20T21:36:53.466Z,106.12
2018-12-20T21:39:30.507Z,115.10
2018-12-20T21:42:04.234Z,106.22
2018-12-20T21:44:41.443Z,105.95
2018-12-20T21:47:12.714Z,75.37
2018-12-20T21:49:46.449Z,76.87
2018-12-20T21:52:17.748Z,81.17
2018-12-20T21:54:51.324Z,88.03
2018-12-20T21:57:24.275Z,87.40
2018-12-20T22:00:02.919Z,82.50
2018-12-20T22:02:33.206Z,65.55
2018-12-20T22:05:03.983Z,78.52
2018-12-20T22:07:38.111Z,78.37
2018-12-20T22:10:15.121Z,73.17
2018-12-20T22:12:56.095Z,73.60
2018-12-20T22:15:34.368Z,82.05
2018-12-20T22:18:11.184Z,73.33
2018-12-20T22:20:48.153Z,77.82
2018-12-20T22:23:18.118Z,92.67
2018-12-20T22:25:48.057Z,132.87
2018-12-20T22:28:18.873Z,106.47
2018-12-20T22:30:48.874Z,85.42
2018-12-20T22:33:26.665Z,101.95
2018-12-20T22:35:59.797Z,137.37
2018-12-20T22:38:29.779Z,96.32
2018-12-20T22:41:04.473Z,98.80
2018-12-20T22:43:42.502Z,68.25
2018-12-20T22:46:21.559Z,81.00
2018-12-20T22:48:59.865Z,64.35
2018-12-20T22:51:42.493Z,104.67
2018-12-20T22:54:24.089Z,97.47
2018-12-20T23:00:41.545Z,122.33
2018-12-20T23:03:15.466Z,137.88
2018-12-20T23:05:46.372Z,187.90
2018-12-20T23:25:56.445Z,141.65
2018-12-20T23:28:35.917Z,136.85
2018-12-20T23:31:06.522Z,145.85
2018-12-20T23:33:37.032Z,154.95
2018-12-20T23:36:33.043Z,96.95
2018-12-20T23:39:09.258Z,67.85
2018-12-20T23:41:49.669Z,48.63
2018-12-20T23:44:24.588Z,115.82
2018-12-20T23:47:06.168Z,96.97
2018-12-20T23:49:47.665Z,149.55
2018-12-20T23:55:23.270Z,97.27
